Spang, Denmark
Current Conditions -  °F | °C
As of 6:20 PM on Tuesday 21 Oct 2014 (Local Time) from EKSB Reporting Station
Light Rain Light Rain  
Wind Chill: 54°   Ceiling: 500
Heat Index: 54°   Visibility: 2.5mi
Dew Point: 52°   Wind: 13mph
Humidity: 94%   Direction: 160°SSE
Pressure: 29.29"   Gusts: NA
Location:  54.93°N, 9.84°E
Report Text: EKSB 211620Z 16011KT 4000 -RA BKN005 BKN008 12/11 Q0992
Loading
Personal Weather Stations






























Interactive Weather Map
Tropical Storm Tracking
New forecast layout! Learn more

10-Day Weather Forecast

Advertisements
Track Severe Weather on mobile